| time (UTC) | temp F | wind direction | speed knots | gust knots | rain 1hr in | rain 24hr in | rain mn in | humidity % | barometer mb |
| 20260505211004 | 54 | 326 | 2.6 | 7.8 | 0.00 | 0.00 | 0.00 | 40 | 985.1 |
| 20260505210003 | 54 | 275 | 2.6 | 10.4 | 0.00 | 0.00 | 0.00 | 39 | 985.1 |
| 20260505204003 | 54 | 255 | 2.6 | 10.4 | 0.00 | 0.00 | 0.00 | 38 | 984.9 |
| 20260505203004 | 54 | 253 | 2.6 | 7.8 | 0.00 | 0.00 | 0.00 | 37 | 985.1 |
| 20260505202004 | 55 | 264 | 2.6 | 7.8 | 0.00 | 0.00 | 0.00 | 37 | 984.7 |
| 20260505201003 | 54 | 228 | 3.5 | 11.3 | 0.00 | 0.00 | 0.00 | 38 | 985.0 |
| 20260505195003 | 55 | 272 | 1.7 | 8.7 | 0.00 | 0.00 | 0.00 | 39 | 984.9 |
| 20260505194004 | 55 | 258 | 2.6 | 7.0 | 0.00 | 0.00 | 0.00 | 38 | 985.0 |
| 20260505193004 | 55 | 287 | 2.6 | 8.7 | 0.00 | 0.00 | 0.00 | 38 | 984.5 |
| 20260505192004 | 55 | 251 | 4.3 | 10.4 | 0.00 | 0.00 | 0.00 | 37 | 984.5 |
| 20260505190004 | 54 | 263 | 3.5 | 10.4 | 0.00 | 0.00 | 0.00 | 38 | 984.1 |
| 20260505185003 | 54 | 239 | 2.6 | 8.7 | 0.00 | 0.00 | 0.00 | 37 | 984.5 |
| 20260505184003 | 55 | 291 | 2.6 | 7.8 | 0.00 | 0.00 | 0.00 | 36 | 984.3 |
| 20260505183004 | 54 | 264 | 2.6 | 8.7 | 0.00 | 0.00 | 0.00 | 37 | 984.4 |
| 20260505182004 | 55 | 259 | 2.6 | 6.1 | 0.00 | 0.00 | 0.00 | 36 | 984.2 |
| 20260505175004 | 55 | 231 | 4.3 | 8.7 | 0.00 | 0.00 | 0.00 | 32 | 983.8 |
| 20260505174004 | 56 | 278 | 1.7 | 7.8 | 0.00 | 0.00 | 0.00 | 33 | 983.0 |
| 20260505173004 | 56 | 302 | 2.6 | 7.8 | 0.00 | 0.00 | 0.00 | 33 | 983.2 |
| 20260505172004 | 55 | 318 | 2.6 | 7.8 | 0.00 | 0.00 | 0.00 | 34 | 982.9 |
| 20260505171003 | 55 | 302 | 3.5 | 7.8 | 0.00 | 0.00 | 0.00 | 32 | 983.0 |
| 20260505170004 | 55 | 304 | 3.5 | 8.7 | 0.00 | 0.00 | 0.00 | 33 | 982.7 |
| 20260505165004 | 55 | 340 | 4.3 | 7.8 | 0.00 | 0.00 | 0.00 | 32 | 982.9 |
| 20260505163004 | 55 | 275 | 5.2 | 12.2 | 0.00 | 0.00 | 0.00 | 32 | 982.9 |
| 20260505161004 | 54 | 274 | 1.7 | 7.0 | 0.00 | 0.00 | 0.00 | 33 | 983.9 |
| 20260505153003 | 53 | 250 | 2.6 | 7.0 | 0.00 | 0.00 | 0.00 | 36 | 982.9 |
| 20260505152003 | 52 | 292 | 0.9 | 7.8 | 0.00 | 0.00 | 0.00 | 39 | 982.6 |
| 20260505151004 | 52 | 322 | 2.6 | 7.8 | 0.00 | 0.00 | 0.00 | 39 | 983.9 |
| 20260505125004 | 49 | 331 | 2.6 | 7.0 | 0.00 | 0.00 | 0.00 | 69 | 983.2 |
| 20260505124004 | 49 | 299 | 2.6 | 6.1 | 0.00 | 0.00 | 0.00 | 69 | 982.9 |
| 20260505123004 | 49 | 247 | 2.6 | 7.0 | 0.00 | 0.00 | 0.00 | 69 | 982.9 |
| 20260505122004 | 50 | 285 | 0.9 | 5.2 | 0.00 | 0.00 | 0.00 | 68 | 982.1 |
| 20260505121004 | 50 | 320 | 1.7 | 7.0 | 0.00 | 0.00 | 0.00 | 68 | 982.1 |
| 20260505120005 | 50 | 273 | 1.7 | 7.0 | 0.00 | 0.00 | 0.00 | 68 | 981.5 |
| 20260505115004 | 50 | 328 | 1.7 | 5.2 | 0.00 | 0.00 | 0.00 | 69 | 981.9 |
| 20260505114004 | 50 | 304 | 0.9 | 5.2 | 0.00 | 0.00 | 0.00 | 69 | 982.1 |
| 20260505113004 | 50 | 329 | 0.9 | 5.2 | 0.00 | 0.00 | 0.00 | 69 | 981.6 |
| 20260505112005 | 49 | 353 | 0.9 | 6.1 | 0.00 | 0.00 | 0.00 | 70 | 981.5 |
| 20260505111003 | 49 | 352 | 1.7 | 4.3 | 0.00 | 0.00 | 0.00 | 70 | 981.5 |
| 20260505100004 | 51 | 297 | 0.9 | 5.2 | 0.00 | 0.00 | 0.00 | 62 | 980.9 |
| 20260505095004 | 52 | 245 | 2.6 | 6.1 | 0.00 | 0.00 | 0.00 | 61 | 980.4 |
| 20260505094003 | 52 | 2 | 0.9 | 7.8 | 0.00 | 0.00 | 0.00 | 59 | 979.8 |
| 20260505093004 | 53 | 263 | 1.7 | 7.0 | 0.00 | 0.00 | 0.00 | 57 | 979.7 |
| 20260505092004 | 53 | 309 | 1.7 | 5.2 | 0.00 | 0.00 | 0.00 | 55 | 979.7 |
| 20260505091004 | 53 | 80 | 0.9 | 2.6 | 0.00 | 0.00 | 0.00 | 56 | 979.5 |
| 20260505090004 | 53 | 5 | 0.0 | 2.6 | 0.00 | 0.00 | 0.00 | 55 | 979.3 |
| 20260505084004 | 54 | 219 | 1.7 | 4.3 | 0.00 | 0.00 | 0.00 | 54 | 979.0 |
| 20260505083004 | 54 | 216 | 0.9 | 4.3 | 0.00 | 0.00 | 0.00 | 56 | 978.7 |
| 20260505081004 | 54 | 354 | 0.9 | 2.6 | 0.00 | 0.00 | 0.00 | 62 | 978.4 |
| 20260505080004 | 54 | 212 | 0.9 | 2.6 | 0.00 | 0.00 | 0.00 | 64 | 978.4 |
| 20260505074004 | 55 | 350 | 0.9 | 4.3 | 0.00 | 0.00 | 0.00 | 65 | 978.5 |
| 20260505073004 | 55 | 184 | 1.7 | 2.6 | 0.00 | 0.00 | 0.00 | 67 | 978.4 |
| 20260505072004 | 55 | 272 | 0.0 | 5.2 | 0.00 | 0.00 | 0.00 | 69 | 977.9 |
| 20260505071004 | 55 | 215 | 0.9 | 5.2 | 0.00 | 0.00 | 0.00 | 71 | 977.9 |
| 20260505070004 | 55 | 208 | 0.9 | 4.3 | 0.00 | 0.00 | 0.00 | 73 | 977.9 |
| 20260505065004 | 55 | 23 | 0.9 | 2.6 | 0.00 | 0.00 | 0.00 | 74 | 978.1 |
| 20260505064004 | 55 | 340 | 0.9 | 2.6 | 0.00 | 0.00 | 0.00 | 76 | 978.4 |
| 20260505062004 | 56 | 181 | 0.9 | 2.6 | 0.00 | 0.00 | 0.00 | 77 | 978.1 |
| 20260505061004 | 57 | 184 | 1.7 | 4.3 | 0.00 | 0.00 | 0.00 | 76 | 977.4 |
| 20260505060004 | 57 | 103 | 0.9 | 2.6 | 0.00 | 0.00 | 0.00 | 76 | 977.5 |
| 20260505055004 | 57 | 336 | 0.9 | 4.3 | 0.00 | 0.00 | 0.00 | 76 | 977.5 |
| 20260505054004 | 58 | 256 | 0.9 | 4.3 | 0.00 | 0.00 | 0.00 | 75 | 977.6 |
| 20260505053004 | 58 | 315 | 0.9 | 4.3 | 0.00 | 0.00 | 0.00 | 75 | 977.4 |
| 20260505052004 | 59 | 248 | 1.7 | 4.3 | 0.00 | 0.00 | 0.00 | 74 | 977.3 |
| 20260505051004 | 59 | 233 | 0.9 | 4.3 | 0.00 | 0.00 | 0.00 | 74 | 977.1 |
| 20260505041005 | 63 | 214 | 4.3 | 10.4 | 0.00 | 0.00 | 0.00 | 68 | 976.4 |
| 20260505040005 | 64 | 258 | 1.7 | 7.8 | 0.00 | 0.00 | 0.00 | 67 | 976.4 |
| 20260505035004 | 64 | 249 | 3.5 | 7.8 | 0.00 | 0.00 | 0.00 | 67 | 976.2 |
| 20260505034004 | 64 | 258 | 1.7 | 6.1 | 0.00 | 0.00 | 0.00 | 68 | 976.2 |
| 20260505033004 | 64 | 217 | 2.6 | 7.0 | 0.00 | 0.00 | 0.00 | 67 | 976.1 |
| 20260505032004 | 63 | 225 | 1.7 | 4.3 | 0.00 | 0.00 | 0.00 | 68 | 976.0 |
| 20260505031004 | 64 | 206 | 1.7 | 5.2 | 0.00 | 0.00 | 0.00 | 68 | 976.0 |
| 20260505025004 | 65 | 262 | 1.7 | 7.0 | 0.00 | 0.00 | 0.00 | 64 | 975.9 |
| 20260505024004 | 65 | 186 | 1.7 | 7.8 | 0.00 | 0.00 | 0.00 | 64 | 975.2 |
| 20260505022004 | 66 | 175 | 3.5 | 10.4 | 0.00 | 0.00 | 0.00 | 62 | 975.2 |
| 20260505021004 | 68 | 182 | 4.3 | 11.3 | 0.00 | 0.00 | 0.00 | 59 | 975.3 |
| 20260505020004 | 69 | 217 | 3.5 | 15.6 | 0.00 | 0.00 | 0.00 | 58 | 974.8 |
| 20260505015004 | 70 | 223 | 4.3 | 13.0 | 0.00 | 0.00 | 0.00 | 55 | 974.4 |
| 20260505014003 | 71 | 194 | 4.3 | 10.4 | 0.00 | 0.00 | 0.00 | 53 | 974.0 |
| 20260505013003 | 71 | 193 | 4.3 | 8.7 | 0.00 | 0.00 | 0.00 | 52 | 973.8 |
| 20260505012003 | 71 | 195 | 2.6 | 7.0 | 0.00 | 0.00 | 0.00 | 52 | 973.8 |
| 20260505011004 | 71 | 220 | 4.3 | 8.7 | 0.00 | 0.00 | 0.00 | 51 | 973.7 |
| 20260505010004 | 72 | 220 | 5.2 | 11.3 | 0.00 | 0.00 | 0.00 | 49 | 973.8 |
| 20260505005004 | 72 | 214 | 4.3 | 10.4 | 0.00 | 0.00 | 0.00 | 47 | 973.9 |
| 20260505004004 | 73 | 207 | 3.5 | 10.4 | 0.00 | 0.00 | 0.00 | 42 | 973.8 |
| 20260505000003 | 74 | 200 | 2.6 | 7.8 | 0.00 | 0.00 | 0.00 | 35 | 973.4 |
| 20260504235004 | 75 | 211 | 2.6 | 8.7 | 0.00 | 0.00 | 0.00 | 35 | 973.6 |
| 20260504234004 | 75 | 211 | 2.6 | 7.8 | 0.00 | 0.00 | 0.00 | 34 | 973.7 |
| 20260504233003 | 76 | 214 | 2.6 | 10.4 | 0.00 | 0.00 | 0.00 | 34 | 973.8 |
| 20260504232004 | 76 | 208 | 1.7 | 6.1 | 0.00 | 0.00 | 0.00 | 33 | 973.7 |
| 20260504231004 | 75 | 222 | 3.5 | 10.4 | 0.00 | 0.00 | 0.00 | 33 | 973.8 |
| 20260504230004 | 75 | 244 | 2.6 | 7.8 | 0.00 | 0.00 | 0.00 | 34 | 974.1 |
| 20260504225004 | 75 | 211 | 3.5 | 7.8 | 0.00 | 0.00 | 0.00 | 33 | 974.3 |
| 20260504224004 | 75 | 222 | 2.6 | 8.7 | 0.00 | 0.00 | 0.00 | 33 | 974.6 |
| 20260504223004 | 75 | 236 | 4.3 | 10.4 | 0.00 | 0.00 | 0.00 | 32 | 974.6 |
| 20260504220004 | 75 | 202 | 4.3 | 11.3 | 0.00 | 0.00 | 0.00 | 32 | 974.7 |
| 20260504215004 | 75 | 230 | 3.5 | 11.3 | 0.00 | 0.00 | 0.00 | 32 | 975.2 |
| 20260504213004 | 76 | 195 | 6.1 | 11.3 | 0.00 | 0.00 | 0.00 | 31 | 974.9 |